createdAt,value
2019-05-15T09:12:41.530Z,9.95
2019-05-15T09:15:12.104Z,10.07
2019-05-15T09:17:42.329Z,9.03
2019-05-15T09:20:12.248Z,9.10
2019-05-15T09:22:41.687Z,10.03
2019-05-15T09:25:12.933Z,9.53
2019-05-15T09:27:43.153Z,9.33
2019-05-15T09:30:14.867Z,11.25
2019-05-15T09:32:48.685Z,9.78
2019-05-15T09:35:20.069Z,10.03
2019-05-15T09:37:54.179Z,10.15
2019-05-15T09:40:41.816Z,8.98
2019-05-15T09:42:58.336Z,9.80
2019-05-15T09:45:33.604Z,9.90
2019-05-15T09:48:02.650Z,10.48
2019-05-15T09:50:33.906Z,10.38
2019-05-15T09:53:05.607Z,10.60
2019-05-15T09:55:38.305Z,10.40
2019-05-15T09:58:08.315Z,10.38
2019-05-15T10:00:38.590Z,10.58
2019-05-15T10:03:09.571Z,10.18
2019-05-15T10:05:39.279Z,9.63
2019-05-15T10:08:09.111Z,9.73
2019-05-15T10:10:38.697Z,9.93
2019-05-15T10:13:09.011Z,11.15
2019-05-15T10:15:40.293Z,10.32
2019-05-15T10:18:10.063Z,11.03
2019-05-15T10:20:39.784Z,10.15
2019-05-15T10:23:11.493Z,10.85
2019-05-15T10:25:41.917Z,9.93
2019-05-15T10:28:15.063Z,9.05
2019-05-15T10:30:42.922Z,9.53
2019-05-15T10:33:12.243Z,10.32
2019-05-15T10:35:43.565Z,11.20
2019-05-15T10:38:16.057Z,8.95
2019-05-15T10:40:59.880Z,8.53
2019-05-15T10:43:20.707Z,8.38
2019-05-15T10:45:54.194Z,7.30
2019-05-15T10:48:32.169Z,6.30
2019-05-15T10:51:07.165Z,6.22
2019-05-15T10:53:33.114Z,5.10
2019-05-15T10:56:04.547Z,5.12
2019-05-15T10:58:35.549Z,4.50
2019-05-15T11:01:04.892Z,4.40
2019-05-15T11:03:35.064Z,4.22
2019-05-15T11:06:04.631Z,4.25
2019-05-15T11:08:40.049Z,4.20
2019-05-15T11:11:05.737Z,5.03
2019-05-15T11:13:35.063Z,5.12
2019-05-15T11:16:04.611Z,4.72
2019-05-15T11:18:34.060Z,5.35
2019-05-15T11:21:08.212Z,5.10
2019-05-15T11:23:39.448Z,5.60
2019-05-15T11:26:08.925Z,5.05
2019-05-15T11:28:40.877Z,4.87
2019-05-15T11:31:10.656Z,5.20
2019-05-15T11:33:40.414Z,5.42
2019-05-15T11:36:10.052Z,5.53
2019-05-15T11:38:40.273Z,5.40
2019-05-15T11:41:09.577Z,5.08
2019-05-15T11:43:39.200Z,6.90
2019-05-15T11:46:09.949Z,5.90
2019-05-15T11:48:41.439Z,5.85
2019-05-15T11:51:11.090Z,5.33
2019-05-15T11:53:40.506Z,5.85
2019-05-15T11:56:10.144Z,6.30
2019-05-15T11:58:41.151Z,5.97
2019-05-15T12:01:10.904Z,5.42
2019-05-15T12:03:40.309Z,6.37
2019-05-15T12:06:18.719Z,6.70
2019-05-15T12:08:40.837Z,6.55
2019-05-15T12:11:26.975Z,6.17
2019-05-15T12:13:42.208Z,5.80
2019-05-15T12:16:11.767Z,6.75
2019-05-15T12:18:48.288Z,5.75
2019-05-15T12:21:19.740Z,6.27
2019-05-15T12:23:48.757Z,6.55
2019-05-15T12:26:18.322Z,5.20
2019-05-15T12:28:49.324Z,5.47
2019-05-15T12:31:24.364Z,5.03
2019-05-15T12:33:50.311Z,5.87
2019-05-15T12:38:51.235Z,5.65
2019-05-15T13:01:32.014Z,4.67
2019-05-15T13:04:01.810Z,4.20
2019-05-15T13:06:39.988Z,4.50
2019-05-15T13:09:04.377Z,4.72
2019-05-15T13:11:34.387Z,4.30
2019-05-15T13:14:08.177Z,3.70
2019-05-15T13:16:39.029Z,5.05
2019-05-15T13:19:08.902Z,5.12
2019-05-15T13:21:41.336Z,5.15
2019-05-15T13:24:10.263Z,4.40
2019-05-15T13:26:41.262Z,4.90
2019-05-15T13:29:10.969Z,4.12
2019-05-15T13:31:42.180Z,4.83
2019-05-15T13:34:13.486Z,4.28
2019-05-15T13:36:43.448Z,4.12
2019-05-15T13:39:14.901Z,4.45
2019-05-15T13:41:44.731Z,4.90
2019-05-15T13:44:14.386Z,4.60
2019-05-15T13:46:44.075Z,4.42
2019-05-15T13:49:13.802Z,4.35
2019-05-15T13:51:43.174Z,4.17
2019-05-15T13:54:12.834Z,4.05
2019-05-15T13:56:42.556Z,3.33
2019-05-15T13:59:14.147Z,3.85
2019-05-15T14:01:43.501Z,3.45
2019-05-15T14:04:12.910Z,3.35
2019-05-15T14:06:44.987Z,3.55
2019-05-15T14:09:16.461Z,3.83
2019-05-15T14:11:49.129Z,3.70
2019-05-15T14:14:17.184Z,4.10
2019-05-15T14:16:48.939Z,4.47
2019-05-15T14:19:18.097Z,4.12
2019-05-15T14:21:49.030Z,4.33
2019-05-15T14:24:21.391Z,3.85
2019-05-15T14:27:12.972Z,4.05
2019-05-15T14:29:35.208Z,3.90
2019-05-15T14:32:11.246Z,3.98
2019-05-15T14:35:02.258Z,3.67
2019-05-15T14:38:01.580Z,3.65
2019-05-15T14:47:09.934Z,3.70
2019-05-15T14:49:45.033Z,4.08
2019-05-15T14:52:09.842Z,3.70
2019-05-15T14:54:39.101Z,3.30
2019-05-15T14:57:08.748Z,3.72
2019-05-15T14:59:38.286Z,3.92
2019-05-15T15:02:09.088Z,4.33
2019-05-15T15:04:39.219Z,4.40
2019-05-15T15:07:08.822Z,4.22
2019-05-15T15:09:37.964Z,4.78
2019-05-15T15:12:08.208Z,4.90
2019-05-15T15:14:37.928Z,4.53
2019-05-15T15:17:07.173Z,5.53
2019-05-15T15:19:38.671Z,6.50
2019-05-15T15:22:08.693Z,5.55
2019-05-15T15:24:39.015Z,6.58
2019-05-15T15:27:08.431Z,6.25
2019-05-15T15:29:38.887Z,5.67
2019-05-15T15:32:08.154Z,5.22
2019-05-15T15:34:38.925Z,5.58
2019-05-15T15:37:08.581Z,6.05
2019-05-15T15:39:38.644Z,5.85
2019-05-15T15:42:08.571Z,7.65
2019-05-15T15:44:38.117Z,6.80
2019-05-15T15:47:08.688Z,6.45
2019-05-15T15:49:38.749Z,6.35
2019-05-15T15:52:08.740Z,6.85
2019-05-15T15:54:39.478Z,7.33
2019-05-15T15:57:08.728Z,6.50
2019-05-15T15:59:38.609Z,7.00
2019-05-15T16:02:08.843Z,6.80
2019-05-15T16:04:39.215Z,7.05
2019-05-15T16:07:09.674Z,6.47
2019-05-15T16:09:38.869Z,6.80
2019-05-15T16:12:09.642Z,7.15
2019-05-15T16:14:38.969Z,7.08
2019-05-15T16:17:08.621Z,6.72
2019-05-15T16:19:38.937Z,6.58
2019-05-15T16:22:08.837Z,7.35
2019-05-15T16:24:38.667Z,7.50
2019-05-15T16:27:09.664Z,8.98
2019-05-15T16:29:39.355Z,9.08
2019-05-15T16:32:08.828Z,8.30
2019-05-15T16:34:39.306Z,8.08
2019-05-15T16:37:09.092Z,7.92
2019-05-15T16:39:38.356Z,8.23
2019-05-15T16:42:07.570Z,8.63
2019-05-15T16:44:38.393Z,8.85
2019-05-15T16:47:08.425Z,10.00
2019-05-15T16:49:39.047Z,9.60
2019-05-15T16:52:09.213Z,8.95
2019-05-15T16:54:38.670Z,10.75
2019-05-15T16:57:09.962Z,12.65
2019-05-15T16:59:39.102Z,12.78
2019-05-15T17:02:08.934Z,14.15
2019-05-15T17:04:38.307Z,14.10
2019-05-15T17:07:07.820Z,14.35
2019-05-15T17:09:38.700Z,13.62
2019-05-15T17:12:08.700Z,12.82
2019-05-15T17:14:38.800Z,12.45
2019-05-15T17:17:08.111Z,13.85
2019-05-15T17:19:37.479Z,13.35
2019-05-15T17:22:09.291Z,12.85
2019-05-15T17:24:38.747Z,12.82
2019-05-15T17:27:10.372Z,13.98
2019-05-15T17:29:38.876Z,13.60
2019-05-15T17:32:08.567Z,13.65
2019-05-15T17:34:38.106Z,14.20
2019-05-15T17:37:07.304Z,14.75
2019-05-15T17:39:38.920Z,14.47
2019-05-15T17:42:07.175Z,12.93
2019-05-15T17:44:38.239Z,13.15
2019-05-15T17:47:09.729Z,12.80
2019-05-15T17:49:38.644Z,12.35
2019-05-15T17:52:08.891Z,13.05
2019-05-15T17:54:38.100Z,14.60
2019-05-15T17:57:09.204Z,16.48
2019-05-15T17:59:38.411Z,14.73
2019-05-15T18:02:08.542Z,14.20
2019-05-15T18:04:38.762Z,13.18
2019-05-15T18:07:08.603Z,13.55
2019-05-15T18:09:50.372Z,13.75
2019-05-15T18:12:11.248Z,12.55
2019-05-15T18:14:39.606Z,12.98
2019-05-15T18:17:08.789Z,14.10
2019-05-15T18:19:38.105Z,12.58
2019-05-15T18:22:08.927Z,11.95
2019-05-15T18:24:38.389Z,12.18
2019-05-15T18:27:08.060Z,12.78
2019-05-15T18:29:38.663Z,13.35
2019-05-15T18:32:08.624Z,11.78
2019-05-15T18:34:39.592Z,12.40
2019-05-15T18:37:08.848Z,13.53
2019-05-15T18:39:38.969Z,11.78
2019-05-15T18:42:08.319Z,12.73
2019-05-15T18:44:39.359Z,12.55
2019-05-15T18:47:08.667Z,14.45
2019-05-15T18:49:38.097Z,13.00
2019-05-15T18:52:08.793Z,13.85
2019-05-15T18:54:38.725Z,13.68
2019-05-15T18:57:08.573Z,11.78
2019-05-15T18:59:37.943Z,12.45
2019-05-15T19:02:08.026Z,12.28
2019-05-15T19:04:38.347Z,12.15
2019-05-15T19:07:08.906Z,12.20
2019-05-15T19:09:38.603Z,12.80
2019-05-15T19:12:09.244Z,12.80
2019-05-15T19:14:39.495Z,12.80
2019-05-15T19:17:09.145Z,11.90
2019-05-15T19:19:38.826Z,13.83
2019-05-15T19:22:08.143Z,12.90
2019-05-15T19:24:39.871Z,11.48
2019-05-15T19:27:08.251Z,11.90
2019-05-15T19:29:37.830Z,11.78
2019-05-15T19:32:10.656Z,12.82
2019-05-15T19:34:38.769Z,12.65
2019-05-15T19:37:08.007Z,12.88
2019-05-15T19:39:38.539Z,12.63
2019-05-15T19:42:08.939Z,11.73
2019-05-15T19:44:38.109Z,14.30
2019-05-15T19:47:07.966Z,13.90
2019-05-15T19:49:37.858Z,13.35
2019-05-15T19:52:08.541Z,13.53
2019-05-15T19:54:37.904Z,13.22
2019-05-15T19:57:08.026Z,13.70
2019-05-15T19:59:38.163Z,13.28
2019-05-15T20:02:08.538Z,12.90
2019-05-15T20:04:38.569Z,13.78
2019-05-15T20:07:08.078Z,13.85
2019-05-15T20:09:38.328Z,13.38
2019-05-15T20:12:09.069Z,13.00
2019-05-15T20:14:38.408Z,12.63
2019-05-15T20:17:08.064Z,13.05
2019-05-15T20:19:38.305Z,12.88
2019-05-15T20:22:08.032Z,12.28
2019-05-15T20:24:38.177Z,13.13
2019-05-15T20:27:08.562Z,12.73
2019-05-15T20:29:38.316Z,12.40
2019-05-15T20:32:07.670Z,12.90
2019-05-15T20:34:37.934Z,13.20
2019-05-15T20:37:07.364Z,12.65
2019-05-15T20:39:38.194Z,12.90
2019-05-15T20:42:08.836Z,12.60
2019-05-15T20:44:38.031Z,14.85
2019-05-15T20:47:08.307Z,13.90
2019-05-15T20:49:37.858Z,12.80
2019-05-15T20:52:07.019Z,12.45
2019-05-15T20:54:38.614Z,14.10
2019-05-15T20:57:08.826Z,14.63
2019-05-15T20:59:38.688Z,14.43
2019-05-15T21:02:08.212Z,13.10
2019-05-15T21:04:38.518Z,14.35
2019-05-15T21:07:07.898Z,13.72
2019-05-15T21:09:39.516Z,13.28
2019-05-15T21:12:09.843Z,13.05
2019-05-15T21:14:40.106Z,12.68
2019-05-15T21:17:09.372Z,13.03
2019-05-15T21:19:38.688Z,14.18
2019-05-15T21:22:08.312Z,13.43
2019-05-15T21:24:38.626Z,13.93
2019-05-15T21:27:07.724Z,13.28
2019-05-15T21:29:38.175Z,13.95
2019-05-15T21:32:08.455Z,14.68
2019-05-15T21:34:43.893Z,15.53
2019-05-15T21:37:08.789Z,17.02
2019-05-15T21:39:39.192Z,16.65
2019-05-15T21:42:08.986Z,16.27
2019-05-15T21:44:38.308Z,15.30
2019-05-15T21:47:08.174Z,16.40
2019-05-15T21:49:38.798Z,14.63
2019-05-15T21:52:08.151Z,15.45
2019-05-15T21:54:38.608Z,15.68
2019-05-15T21:57:28.780Z,14.25
2019-05-15T21:59:38.527Z,14.70
2019-05-15T22:02:07.636Z,14.18
2019-05-15T22:04:49.063Z,15.30
2019-05-15T22:07:09.031Z,14.05
2019-05-15T22:09:38.301Z,13.68
2019-05-15T22:12:07.421Z,14.07
2019-05-15T22:14:37.888Z,13.78
2019-05-15T22:17:09.211Z,13.75
2019-05-15T22:19:38.503Z,13.15
2019-05-15T22:22:08.767Z,13.22
2019-05-15T22:24:38.029Z,15.70
2019-05-15T22:27:09.478Z,13.08
2019-05-15T22:29:38.035Z,13.58
2019-05-15T22:32:08.190Z,13.38
2019-05-15T22:34:37.388Z,13.40
2019-05-15T22:37:06.944Z,13.22
2019-05-15T22:39:38.518Z,14.47
2019-05-15T22:42:08.220Z,13.03
2019-05-15T22:44:38.599Z,13.35
2019-05-15T22:47:07.803Z,13.43
2019-05-15T22:49:38.073Z,14.33
2019-05-15T22:52:08.606Z,13.43
2019-05-15T22:54:38.691Z,14.58
2019-05-15T22:57:07.884Z,12.98
2019-05-15T22:59:38.276Z,14.07
2019-05-15T23:02:09.274Z,14.25
2019-05-15T23:04:38.204Z,13.25
2019-05-15T23:07:08.185Z,14.40
2019-05-15T23:09:38.385Z,13.20
2019-05-15T23:12:11.323Z,12.82
2019-05-15T23:14:39.229Z,13.30
2019-05-15T23:17:08.321Z,12.58
2019-05-15T23:19:38.580Z,13.32
2019-05-15T23:22:08.347Z,12.95
2019-05-15T23:24:38.751Z,12.78
2019-05-15T23:27:08.852Z,10.90
2019-05-15T23:29:38.703Z,13.72
2019-05-15T23:32:07.993Z,12.95
2019-05-15T23:34:38.602Z,12.80
2019-05-15T23:37:08.344Z,14.40
2019-05-15T23:39:38.046Z,12.35
2019-05-15T23:42:08.857Z,13.13
2019-05-15T23:44:38.183Z,14.00
2019-05-15T23:47:07.433Z,13.80
2019-05-15T23:49:38.224Z,14.23
2019-05-15T23:52:08.880Z,13.78
2019-05-15T23:54:38.627Z,13.15
2019-05-15T23:57:08.967Z,13.48
2019-05-15T23:59:38.492Z,12.05
